Time;durP1;ratioP1;P1;durP2;ratioP2;P2;SDS_P1;SDS_P2;PMS_P1;PMS_P2;Temp;Humidity;BMP_temperature;BMP_pressure;BME280_temperature;BME280_humidity;BME280_pressure;Samples;Min_cycle;Max_cycle;Signal;HPM_P1;HPM_P2
2022/11/19 00:00:04;;;;;;;22.50;11.87;;;;;;;-4.87;100.00;95946.06;10407619;28;20284;-74
2022/11/19 00:05:04;;;;;;;18.87;11.47;;;;;;;-4.88;100.00;95961.47;10407694;28;20718;-74
2022/11/19 00:10:05;;;;;;;17.03;11.33;;;;;;;-4.87;100.00;95973.31;10409147;28;20292;-75
2022/11/19 00:15:06;;;;;;;22.13;11.97;;;;;;;-4.87;100.00;95961.38;10406893;28;20191;-74
2022/11/19 00:20:07;;;;;;;21.33;13.10;;;;;;;-4.73;100.00;95970.03;10408852;28;20196;-75
2022/11/19 00:25:07;;;;;;;21.90;13.60;;;;;;;-4.67;100.00;95979.94;10408225;28;20206;-74
2022/11/19 00:30:08;;;;;;;22.90;13.13;;;;;;;-4.62;100.00;95977.13;10408057;28;20248;-74
2022/11/19 00:35:09;;;;;;;20.40;12.67;;;;;;;-4.52;100.00;95975.72;10406318;28;20187;-73
2022/11/19 00:40:10;;;;;;;21.80;13.03;;;;;;;-4.58;100.00;95988.84;10407111;28;20208;-74
2022/11/19 00:45:11;;;;;;;20.70;12.40;;;;;;;-4.54;100.00;95991.16;10407295;28;20204;-74
2022/11/19 00:50:11;;;;;;;20.33;12.30;;;;;;;-4.51;100.00;96003.78;10406461;28;20217;-73
2022/11/19 00:55:11;;;;;;;23.13;13.57;;;;;;;-4.54;100.00;96005.69;10407582;28;20195;-74
2022/11/19 01:00:12;;;;;;;21.87;13.00;;;;;;;-4.61;100.00;95999.22;10407400;28;20189;-74
2022/11/19 01:05:13;;;;;;;23.63;14.03;;;;;;;-4.66;100.00;95995.19;10406618;28;20334;-73
2022/11/19 01:10:13;;;;;;;25.67;14.30;;;;;;;-4.77;100.00;95991.56;10407473;28;20219;-74
2022/11/19 01:15:14;;;;;;;20.50;11.90;;;;;;;-4.99;100.00;95996.94;10407000;28;20195;-73
2022/11/19 01:20:14;;;;;;;21.67;13.10;;;;;;;-5.03;100.00;95997.09;10407206;28;20202;-74
2022/11/19 01:25:15;;;;;;;25.67;13.63;;;;;;;-4.96;100.00;95991.66;10406837;28;20236;-73
2022/11/19 01:30:15;;;;;;;23.47;12.87;;;;;;;-4.94;100.00;96006.03;10406866;28;20243;-73
2022/11/19 01:35:16;;;;;;;24.43;13.87;;;;;;;-4.90;100.00;96009.22;10407228;28;20230;-73
2022/11/19 01:40:16;;;;;;;22.93;13.30;;;;;;;-4.79;100.00;96011.22;10406821;28;20209;-73
2022/11/19 01:45:30;;;;;;;23.50;14.83;;;;;;;-4.89;100.00;96016.81;10406024;28;20242;-74
2022/11/19 01:50:33;;;;;;;23.17;13.43;;;;;;;-5.20;100.00;96026.03;10411420;28;20717;-74
2022/11/19 01:55:35;;;;;;;21.10;12.70;;;;;;;-5.28;100.00;96030.72;10412384;28;20664;-74
2022/11/19 02:00:35;;;;;;;22.10;12.23;;;;;;;-5.62;100.00;96032.38;10411220;28;20198;-75
2022/11/19 02:05:36;;;;;;;23.53;12.20;;;;;;;-5.81;100.00;96031.59;10412574;28;20197;-74
2022/11/19 02:10:57;;;;;;;24.73;11.80;;;;;;;-5.89;100.00;96026.88;10412060;28;20228;-74
2022/11/19 02:16:05;;;;;;;25.33;12.70;;;;;;;-6.27;100.00;96030.34;10412115;28;20190;-73
2022/11/19 02:21:19;;;;;;;20.77;11.53;;;;;;;-6.60;100.00;96031.88;10412313;28;20193;-74
2022/11/19 02:26:52;;;;;;;18.07;10.90;;;;;;;-6.84;100.00;96030.34;10410863;28;20309;-74
2022/11/19 02:31:55;;;;;;;24.50;11.53;;;;;;;-7.06;100.00;96033.00;10411755;28;20295;-74
2022/11/19 02:37:15;;;;;;;20.40;11.37;;;;;;;-7.23;100.00;96043.06;10412177;28;20209;-74
2022/11/19 02:42:21;;;;;;;19.70;11.13;;;;;;;-7.40;100.00;96042.03;10410433;28;20184;-73
2022/11/19 02:47:25;;;;;;;23.53;12.20;;;;;;;-7.60;100.00;96030.16;10412574;28;20217;-73
2022/11/19 02:52:26;;;;;;;23.50;12.30;;;;;;;-7.64;100.00;96040.50;10410485;28;20221;-75
2022/11/19 02:57:26;;;;;;;31.57;13.33;;;;;;;-7.69;100.00;96042.41;10411746;28;20218;-74
2022/11/19 03:07:54;;;;;;;24.57;12.20;;;;;;;-7.81;100.00;96043.72;10410923;28;20208;-73
2022/11/19 03:16:40;;;;;;;24.57;13.20;;;;;;;-7.98;100.00;96047.75;10410342;28;20188;-74
2022/11/19 03:19:05;;;;;;;24.77;13.07;;;;;;;-8.00;100.00;96053.81;10410994;28;20193;-74
2022/11/19 03:24:11;;;;;;;21.10;10.90;;;;;;;-8.14;100.00;96064.50;10408802;28;20239;-74
2022/11/19 03:29:13;;;;;;;26.80;12.57;;;;;;;-8.39;100.00;96067.13;10410418;28;20240;-73
2022/11/19 03:34:19;;;;;;;24.03;12.43;;;;;;;-8.47;100.00;96080.16;10408973;28;20192;-73
2022/11/19 03:39:20;;;;;;;25.23;12.97;;;;;;;-8.71;100.00;96080.16;10408326;28;20219;-75
2022/11/19 03:44:31;;;;;;;23.07;11.60;;;;;;;-8.79;100.00;96099.91;10408555;28;20740;-75
2022/11/19 03:49:35;;;;;;;25.87;13.37;;;;;;;-8.68;100.00;96092.75;10409835;28;20779;-75
2022/11/19 03:54:37;;;;;;;27.67;14.10;;;;;;;-8.61;100.00;96096.69;10407691;28;20195;-74
2022/11/19 03:59:37;;;;;;;33.83;15.20;;;;;;;-8.62;100.00;96094.22;10408194;28;20238;-74
2022/11/19 04:04:38;;;;;;;35.33;16.47;;;;;;;-8.54;100.00;96104.13;10404277;28;20722;-75
2022/11/19 04:09:39;;;;;;;31.63;15.83;;;;;;;-8.32;100.00;96110.03;10401154;28;20224;-73
2022/11/19 04:14:39;;;;;;;27.93;13.47;;;;;;;-8.18;100.00;96106.97;10401133;28;20282;-75
2022/11/19 04:19:39;;;;;;;31.83;15.90;;;;;;;-8.29;100.00;96111.63;10401436;28;20184;-74
2022/11/19 04:24:40;;;;;;;24.43;12.63;;;;;;;-8.16;100.00;96115.38;10399166;28;20192;-75
2022/11/19 04:29:40;;;;;;;25.70;13.27;;;;;;;-8.32;100.00;96114.28;10398767;28;20239;-74
2022/11/19 04:34:41;;;;;;;27.03;13.53;;;;;;;-8.63;100.00;96108.63;10399488;28;20258;-74
2022/11/19 04:39:41;;;;;;;29.63;15.30;;;;;;;-8.76;100.00;96104.88;10398930;28;20220;-75
2022/11/19 04:44:41;;;;;;;19.80;9.73;;;;;;;-8.44;100.00;96102.88;10400187;28;20540;-75
2022/11/19 04:49:42;;;;;;;28.37;14.57;;;;;;;-8.31;100.00;96093.91;10400371;28;20578;-74
2022/11/19 04:54:42;;;;;;;25.97;13.30;;;;;;;-8.19;100.00;96100.25;10400078;28;20289;-73
2022/11/19 04:59:43;;;;;;;27.90;14.47;;;;;;;-8.21;100.00;96096.94;10399441;28;20192;-74
2022/11/19 05:04:43;;;;;;;30.17;15.83;;;;;;;-8.28;100.00;96093.78;10405632;28;20572;-74
2022/11/19 05:09:43;;;;;;;27.47;16.07;;;;;;;-8.25;100.00;96093.69;10407761;28;20221;-74
2022/11/19 05:14:44;;;;;;;31.13;15.13;;;;;;;-8.35;100.00;96107.59;10406198;28;20192;-74
2022/11/19 05:19:44;;;;;;;29.90;15.43;;;;;;;-8.39;100.00;96103.53;10406068;28;20637;-74
2022/11/19 05:24:45;;;;;;;30.67;15.73;;;;;;;-8.37;100.00;96111.91;10412430;28;20664;-75
2022/11/19 05:29:45;;;;;;;35.03;16.90;;;;;;;-8.38;100.00;96114.50;10413743;28;20245;-75
2022/11/19 05:34:46;;;;;;;23.03;10.47;;;;;;;-8.38;100.00;96120.41;10414836;28;20196;-74
2022/11/19 05:39:46;;;;;;;30.93;13.00;;;;;;;-8.36;100.00;96121.19;10414393;28;20215;-74
2022/11/19 05:44:46;;;;;;;36.23;17.57;;;;;;;-8.39;100.00;96123.84;10413176;28;20200;-75
2022/11/19 05:49:47;;;;;;;54.70;21.80;;;;;;;-8.44;100.00;96133.38;10414110;28;20220;-74
2022/11/19 05:54:47;;;;;;;65.73;26.43;;;;;;;-8.38;100.00;96125.50;10413973;28;20243;-75
2022/11/19 05:59:47;;;;;;;54.93;22.57;;;;;;;-8.47;100.00;96133.47;10414099;28;20553;-74
2022/11/19 06:04:48;;;;;;;32.40;15.37;;;;;;;-8.47;100.00;96136.88;10413207;28;20649;-75
2022/11/19 06:09:48;;;;;;;28.03;14.87;;;;;;;-8.46;100.00;96147.84;10413790;28;20663;-74
2022/11/19 06:14:49;;;;;;;29.60;15.80;;;;;;;-8.54;100.00;96145.56;10413274;28;21031;-75
2022/11/19 06:19:49;;;;;;;27.13;12.20;;;;;;;-8.52;100.00;96150.59;10413040;28;20188;-74
2022/11/19 06:24:49;;;;;;;24.73;12.90;;;;;;;-8.50;100.00;96154.75;10412808;28;20614;-75
2022/11/19 06:29:50;;;;;;;25.27;13.07;;;;;;;-8.54;100.00;96160.00;10410743;28;20270;-74
2022/11/19 06:34:50;;;;;;;30.90;16.03;;;;;;;-8.58;100.00;96166.06;10411992;28;20193;-74
2022/11/19 06:39:50;;;;;;;24.40;12.30;;;;;;;-8.57;100.00;96158.38;10394703;28;20211;-74
2022/11/19 06:44:51;;;;;;;37.77;20.70;;;;;;;-8.55;100.00;96171.03;10412189;28;20698;-74
2022/11/19 06:49:51;;;;;;;29.40;15.77;;;;;;;-8.56;100.00;96177.81;10377790;28;20216;-74
2022/11/19 06:54:52;;;;;;;27.67;14.70;;;;;;;-8.39;100.00;96181.44;10411858;28;20281;-74
2022/11/19 06:59:52;;;;;;;37.50;15.20;;;;;;;-8.55;100.00;96174.38;10411785;28;20203;-74
2022/11/19 07:04:52;;;;;;;25.33;12.53;;;;;;;-8.50;100.00;96171.69;10411212;28;20185;-74
2022/11/19 07:09:53;;;;;;;17.57;9.17;;;;;;;-8.51;100.00;96195.44;10411759;28;20226;-74
2022/11/19 07:14:53;;;;;;;25.80;12.87;;;;;;;-8.46;100.00;96193.56;10410438;28;20203;-74
2022/11/19 07:19:53;;;;;;;24.40;11.93;;;;;;;-8.48;100.00;96180.09;10411282;28;20727;-74
2022/11/19 07:24:54;;;;;;;18.40;9.97;;;;;;;-8.22;100.00;96183.38;10410476;28;20576;-74
2022/11/19 07:29:54;;;;;;;13.00;7.47;;;;;;;-7.88;100.00;96186.34;10392590;28;20333;-74
2022/11/19 07:34:55;;;;;;;27.13;12.40;;;;;;;-7.41;100.00;96182.88;10408110;28;20206;-74
2022/11/19 07:39:55;;;;;;;15.90;8.30;;;;;;;-7.09;100.00;96172.28;10409223;28;20207;-74
2022/11/19 07:44:55;;;;;;;13.00;7.07;;;;;;;-6.58;100.00;96160.84;10408705;28;20185;-77
2022/11/19 07:49:56;;;;;;;16.00;8.60;;;;;;;-6.30;100.00;96170.66;10408925;28;20228;-74
2022/11/19 07:54:56;;;;;;;18.43;10.13;;;;;;;-5.53;100.00;96166.34;10407293;28;20690;-75
2022/11/19 07:59:57;;;;;;;15.90;9.83;;;;;;;-5.23;100.00;96156.41;10398114;28;20213;-74
2022/11/19 08:04:58;;;;;;;14.53;9.03;;;;;;;-4.83;100.00;96133.19;10406830;28;20207;-74
2022/11/19 08:09:58;;;;;;;85.17;32.00;;;;;;;-4.88;100.00;96127.50;10405899;28;20227;-74
2022/11/19 08:14:58;;;;;;;61.60;25.27;;;;;;;-3.47;100.00;96129.50;10405654;28;20207;-74
2022/11/19 08:19:59;;;;;;;39.77;22.17;;;;;;;-3.93;100.00;96119.22;10408081;28;20208;-74
2022/11/19 08:24:59;;;;;;;42.00;25.23;;;;;;;-3.76;100.00;96121.66;10406720;28;20197;-73
2022/11/19 08:29:59;;;;;;;28.13;17.40;;;;;;;-3.47;100.00;96123.56;10402987;28;20233;-75
2022/11/19 08:35:00;;;;;;;16.60;10.87;;;;;;;-2.74;100.00;96108.28;10427588;28;20640;-76
2022/11/19 08:40:00;;;;;;;17.70;9.87;;;;;;;-2.22;100.00;96106.94;10417329;28;20223;-74
2022/11/19 08:45:01;;;;;;;17.10;9.70;;;;;;;-2.59;100.00;96096.31;10444655;28;20225;-74
2022/11/19 08:50:01;;;;;;;18.73;9.83;;;;;;;-2.07;100.00;96097.47;10446975;28;20241;-74
2022/11/19 08:55:02;;;;;;;14.27;8.37;;;;;;;-1.24;96.46;96065.75;10448697;28;20192;-74
2022/11/19 09:00:03;;;;;;;13.47;9.07;;;;;;;-0.44;94.54;96057.84;10417075;28;20790;-75
2022/11/19 09:05:03;;;;;;;12.07;8.20;;;;;;;0.85;89.12;96031.59;10414118;28;20190;-76
2022/11/19 09:10:04;;;;;;;11.90;8.33;;;;;;;0.95;84.52;96003.38;10414902;28;20224;-76
2022/11/19 09:15:05;;;;;;;12.33;8.20;;;;;;;0.24;84.15;96024.81;10415332;28;20567;-75
2022/11/19 09:20:06;;;;;;;13.40;8.33;;;;;;;0.97;81.59;96006.69;10418621;28;20231;-77
2022/11/19 09:25:07;;;;;;;11.30;7.13;;;;;;;1.13;78.89;95983.13;10432534;28;20694;-77
2022/11/19 09:30:08;;;;;;;11.07;7.07;;;;;;;1.43;78.67;95998.84;10418917;28;20263;-76
2022/11/19 09:35:08;;;;;;;11.43;7.10;;;;;;;1.73;76.27;95966.44;10416255;28;20340;-74
2022/11/19 09:40:19;;;;;;;7.70;6.43;;;;;;;2.51;71.68;95912.00;10424403;28;20234;-74
2022/11/19 09:45:29;;;;;;;7.73;5.50;;;;;;;1.46;71.56;95912.63;10425754;28;20223;-74
2022/11/19 09:50:33;;;;;;;5.50;4.37;;;;;;;1.19;68.21;95867.38;10414950;28;20227;-76
2022/11/19 09:55:36;;;;;;;4.43;3.53;;;;;;;-0.13;67.89;95842.06;10404345;28;20203;-75
2022/11/19 10:00:36;;;;;;;5.57;4.10;;;;;;;2.24;68.67;95902.97;10421386;28;20195;-76
2022/11/19 10:05:44;;;;;;;2.70;2.50;;;;;;;1.90;66.57;95866.13;10404317;28;20535;-76
2022/11/19 10:11:24;;;;;;;4.43;3.00;;;;;;;3.31;65.61;95884.59;10409745;28;20239;-78
2022/11/19 10:16:38;;;;;;;2.57;2.37;;;;;;;4.47;60.89;95825.16;10376943;28;20258;-79
2022/11/19 10:21:47;;;;;;;3.07;2.70;;;;;;;4.68;58.27;95791.22;10412792;28;20307;-79
2022/11/19 10:26:57;;;;;;;3.07;2.77;;;;;;;4.67;58.47;95796.56;10411587;28;20342;-78
2022/11/19 10:32:19;;;;;;;2.70;2.50;;;;;;;6.01;57.95;95851.44;10411973;28;20232;-77
2022/11/19 10:37:21;;;;;;;3.23;2.80;;;;;;;4.86;60.54;95870.94;10410948;28;20224;-75
2022/11/19 10:42:32;;;;;;;3.17;2.77;;;;;;;5.15;58.81;95850.03;10408840;28;20185;-75
2022/11/19 10:47:53;;;;;;;3.23;2.93;;;;;;;4.47;60.25;95862.28;10408740;28;20219;-76
2022/11/19 10:53:00;;;;;;;3.00;2.70;;;;;;;5.13;56.55;95800.03;10401659;28;20254;-75
2022/11/19 10:58:07;;;;;;;3.80;3.40;;;;;;;5.35;58.67;95858.56;10411161;28;20216;-76
2022/11/19 11:03:20;;;;;;;4.07;3.23;;;;;;;6.76;52.72;95771.13;10411757;28;20672;-76
2022/11/19 11:08:21;;;;;;;4.40;3.50;;;;;;;5.95;56.88;95854.59;10411445;28;20220;-77
2022/11/19 11:18:47;;;;;;;4.17;3.67;;;;;;;6.76;52.20;95757.28;10411987;28;20582;-76
2022/11/19 11:23:52;;;;;;;4.37;3.97;;;;;;;5.99;54.78;95807.41;10409030;28;20193;-76
2022/11/19 11:29:04;;;;;;;4.03;3.57;;;;;;;7.54;52.15;95791.88;10410131;28;20216;-76
2022/11/19 11:34:13;;;;;;;4.87;4.37;;;;;;;7.50;53.52;95813.06;10410762;28;20216;-76
2022/11/19 11:39:24;;;;;;;4.23;3.83;;;;;;;7.80;50.98;95745.63;10411640;28;20231;-76
2022/11/19 11:44:26;;;;;;;4.23;3.80;;;;;;;8.00;51.32;95763.56;10412340;28;20188;-75
2022/11/19 11:49:39;;;;;;;4.20;3.80;;;;;;;6.29;55.27;95830.53;10394031;28;20688;-75
2022/11/19 11:55:00;;;;;;;4.10;3.70;;;;;;;6.41;53.84;95795.50;10393673;28;20201;-75
2022/11/19 12:00:05;;;;;;;5.23;4.67;;;;;;;2.24;59.03;95799.63;10411522;28;20212;-77
2022/11/19 12:05:14;;;;;;;5.30;4.50;;;;;;;4.22;57.18;95826.56;10393487;28;20199;-75
2022/11/19 12:10:30;;;;;;;5.13;4.30;;;;;;;5.39;56.22;95844.31;10394113;28;20606;-77
2022/11/19 12:15:43;;;;;;;5.53;4.83;;;;;;;7.37;52.37;95788.44;10412141;28;20269;-78
2022/11/19 12:20:51;;;;;;;4.93;4.17;;;;;;;7.68;51.35;95778.22;10412158;28;20591;-77
2022/11/19 12:26:13;;;;;;;4.97;4.47;;;;;;;5.76;51.75;95730.81;10414336;28;20219;-77
2022/11/19 12:31:50;;;;;;;4.90;4.40;;;;;;;6.73;53.87;95807.06;10409466;28;20224;-78
2022/11/19 12:37:13;;;;;;;5.60;4.57;;;;;;;8.36;49.59;95756.19;10442765;28;20221;-78
2022/11/19 12:42:31;;;;;;;5.57;4.23;;;;;;;8.76;47.06;95719.72;10418226;28;20201;-78
2022/11/19 12:47:42;;;;;;;5.10;4.43;;;;;;;6.24;55.17;95817.97;10409384;28;20272;-77
2022/11/19 12:53:03;;;;;;;4.93;4.43;;;;;;;7.84;51.61;95767.78;10406075;28;20194;-78
2022/11/19 12:58:34;;;;;;;5.07;4.57;;;;;;;8.42;50.41;95772.94;10404771;28;20180;-78
2022/11/19 13:03:58;;;;;;;16.27;9.70;;;;;;;8.93;48.30;95736.13;10411266;28;20195;-76
2022/11/19 13:09:25;;;;;;;10.37;7.93;;;;;;;4.90;56.50;95816.00;10406770;28;20212;-77
2022/11/19 13:15:07;;;;;;;7.73;6.37;;;;;;;6.66;53.60;95804.28;10405405;28;20574;-78
2022/11/19 13:20:16;;;;;;;6.00;4.43;;;;;;;3.51;59.54;95843.22;10369985;28;20200;-78
2022/11/19 13:25:24;;;;;;;6.40;4.73;;;;;;;6.09;56.50;95851.50;10392094;28;20717;-77
2022/11/19 13:30:25;;;;;;;5.20;4.20;;;;;;;7.06;51.25;95734.28;10409019;28;20855;-78
2022/11/19 13:35:46;;;;;;;4.80;4.13;;;;;;;7.75;51.11;95767.94;10445386;28;20188;-76
2022/11/19 13:41:11;;;;;;;5.03;4.17;;;;;;;7.30;52.18;95776.03;10446103;28;20298;-77
2022/11/19 13:46:11;;;;;;;6.73;4.30;;;;;;;8.52;50.21;95771.00;10450492;28;20239;-79
2022/11/19 13:51:24;;;;;;;4.83;4.30;;;;;;;8.67;51.16;95786.81;10454254;28;20350;-78
2022/11/19 13:56:37;;;;;;;4.65;4.20;;;;;;;7.92;50.76;95747.91;10454708;28;20426;-79
2022/11/19 14:01:47;;;;;;;5.67;5.03;;;;;;;4.98;55.14;95769.38;10454159;28;20208;-79
2022/11/19 14:06:56;;;;;;;6.53;4.93;;;;;;;4.68;58.29;95847.50;10452859;28;20680;-78
2022/11/19 14:12:18;;;;;;;13.00;10.40;;;;;;;3.87;62.28;95913.47;10454026;28;20198;-79
2022/11/19 14:28:46;;;;;;;5.23;4.60;;;;;;;2.60;64.59;95924.16;10451377;28;20586;-80
2022/11/19 14:33:46;;;;;;;6.13;4.93;;;;;;;1.75;67.88;95982.63;10452924;28;20203;-79
2022/11/19 14:38:52;;;;;;;9.73;7.85;;;;;;;-0.26;72.40;96029.19;10452497;28;20704;-79
2022/11/19 14:44:10;;;;;;;17.50;10.53;;;;;;;-0.57;76.05;96075.03;10433919;28;20596;-78
2022/11/19 14:49:32;;;;;;;11.60;7.53;;;;;;;-1.65;80.68;96092.34;10451681;28;20227;-80
2022/11/19 14:54:43;;;;;;;8.27;6.07;;;;;;;-1.91;85.13;96099.91;10432720;28;20333;-79
2022/11/19 14:59:46;;;;;;;11.43;7.67;;;;;;;-3.55;94.14;96100.09;10450946;28;20195;-80
2022/11/19 15:04:54;;;;;;;20.20;11.10;;;;;;;-3.32;99.92;96081.72;10433086;28;20191;-79
2022/11/19 15:10:08;;;;;;;14.37;7.97;;;;;;;-3.46;100.00;96084.22;10416457;28;20668;-77
2022/11/19 15:15:18;;;;;;;11.97;7.53;;;;;;;-3.99;100.00;96088.84;10450639;28;20203;-78
2022/11/19 15:20:32;;;;;;;13.67;9.80;;;;;;;-4.28;100.00;96092.94;10450751;28;20188;-78
2022/11/19 15:25:58;;;;;;;49.10;15.77;;;;;;;-4.18;100.00;96092.38;10453599;28;20191;-78
2022/11/19 15:31:20;;;;;;;45.20;18.90;;;;;;;-4.16;100.00;96094.84;10417133;28;20601;-77
2022/11/19 15:36:38;;;;;;;14.80;9.17;;;;;;;-4.36;100.00;96089.06;10394305;28;20254;-77
2022/11/19 15:41:59;;;;;;;12.43;7.43;;;;;;;-4.56;100.00;96094.41;10411091;28;20207;-77
2022/11/19 15:47:03;;;;;;;50.43;26.90;;;;;;;-4.49;100.00;96106.78;10372674;28;20218;-77
2022/11/19 15:52:09;;;;;;;28.87;18.50;;;;;;;-4.69;100.00;96104.41;10325204;28;20197;-76
2022/11/19 15:57:15;;;;;;;27.60;18.03;;;;;;;-4.88;100.00;96109.63;10326175;28;20194;-77
2022/11/19 16:02:20;;;;;;;31.67;13.57;;;;;;;-4.92;100.00;96111.50;10326413;28;20899;-77
2022/11/19 16:07:23;;;;;;;29.37;12.67;;;;;;;-5.10;100.00;96102.19;10324671;28;20232;-76
2022/11/19 16:17:46;;;;;;;20.97;10.90;;;;;;;-5.42;100.00;96107.97;10356884;28;20178;-76
2022/11/19 16:22:51;;;;;;;33.97;12.07;;;;;;;-5.57;100.00;96111.25;10351932;28;20685;-76
2022/11/19 16:27:54;;;;;;;24.63;11.93;;;;;;;-5.55;100.00;96104.34;10368810;28;20263;-76
2022/11/19 16:32:57;;;;;;;25.80;12.67;;;;;;;-5.44;100.00;96108.94;10419535;28;20727;-76
2022/11/19 16:37:59;;;;;;;22.07;12.13;;;;;;;-5.48;100.00;96108.28;10434564;28;20238;-76
2022/11/19 16:42:59;;;;;;;29.07;12.93;;;;;;;-5.56;100.00;96105.25;10433628;28;20302;-77
2022/11/19 16:48:01;;;;;;;25.03;12.63;;;;;;;-5.72;100.00;96102.59;10435442;28;20695;-75
2022/11/19 16:53:03;;;;;;;27.47;13.00;;;;;;;-5.67;100.00;96095.53;10433479;28;20647;-76
2022/11/19 16:58:16;;;;;;;29.87;15.47;;;;;;;-5.77;100.00;96102.81;10450395;28;20211;-76
2022/11/19 17:03:28;;;;;;;21.30;11.43;;;;;;;-5.83;100.00;96112.50;10433297;28;20191;-76
2022/11/19 17:08:33;;;;;;;36.23;16.70;;;;;;;-5.90;100.00;96111.94;10432732;28;20628;-76
2022/11/19 17:13:33;;;;;;;26.67;13.03;;;;;;;-5.92;100.00;96103.53;10432799;28;20651;-76
2022/11/19 17:18:34;;;;;;;16.80;9.63;;;;;;;-5.90;100.00;96099.16;10434068;28;20215;-76
2022/11/19 17:23:45;;;;;;;19.00;10.97;;;;;;;-5.98;100.00;96104.66;10441085;28;20226;-76
2022/11/19 17:28:48;;;;;;;29.00;14.63;;;;;;;-5.93;100.00;96120.56;10458840;28;20199;-75
2022/11/19 17:34:12;;;;;;;23.00;13.43;;;;;;;-6.22;100.00;96116.78;10441261;28;20648;-75
2022/11/19 17:39:13;;;;;;;24.07;12.77;;;;;;;-6.43;100.00;96120.28;10458662;28;20225;-75
2022/11/19 17:44:35;;;;;;;26.10;16.43;;;;;;;-6.44;100.00;96129.66;10424113;28;20185;-76
2022/11/19 17:49:35;;;;;;;22.33;12.10;;;;;;;-6.53;100.00;96135.97;10413991;28;20230;-76
2022/11/19 17:54:36;;;;;;;17.47;10.03;;;;;;;-6.48;100.00;96128.97;10435660;28;20702;-76
2022/11/19 17:59:36;;;;;;;21.03;9.97;;;;;;;-6.49;100.00;96129.06;10456183;28;20366;-76
2022/11/19 18:04:37;;;;;;;18.13;9.83;;;;;;;-6.54;100.00;96129.25;10456209;28;20199;-76
2022/11/19 18:09:38;;;;;;;17.40;10.93;;;;;;;-6.43;100.00;96133.03;10455934;28;20189;-76
2022/11/19 18:14:38;;;;;;;23.63;12.00;;;;;;;-6.44;100.00;96126.31;10455898;28;20245;-76
2022/11/19 18:19:39;;;;;;;25.37;12.97;;;;;;;-6.37;100.00;96135.31;10456204;28;20279;-75
2022/11/19 18:24:39;;;;;;;31.93;14.60;;;;;;;-6.47;100.00;96129.81;10454833;28;20190;-76
2022/11/19 18:29:40;;;;;;;43.27;20.90;;;;;;;-6.57;100.00;96137.03;10455905;28;20788;-76
2022/11/19 18:34:40;;;;;;;38.37;18.60;;;;;;;-6.64;100.00;96144.09;10455880;28;20199;-76
2022/11/19 18:39:40;;;;;;;25.73;12.93;;;;;;;-6.67;100.00;96140.84;10454969;28;20218;-76
2022/11/19 18:44:42;;;;;;;25.37;13.20;;;;;;;-6.81;100.00;96137.16;10454331;28;20200;-76
2022/11/19 18:49:42;;;;;;;36.67;18.47;;;;;;;-6.86;100.00;96139.09;10447328;28;20653;-76
2022/11/19 18:54:43;;;;;;;28.50;13.43;;;;;;;-6.83;100.00;96133.88;10430497;28;20176;-76
2022/11/19 18:59:43;;;;;;;22.40;12.20;;;;;;;-6.88;100.00;96133.22;10431028;28;20294;-76
2022/11/19 19:04:44;;;;;;;25.33;13.13;;;;;;;-6.84;100.00;96133.94;10447511;28;20655;-75
2022/11/19 19:09:44;;;;;;;20.97;11.37;;;;;;;-6.72;100.00;96137.66;10453333;28;20648;-75
2022/11/19 19:14:47;;;;;;;10.43;6.17;;;;;;;-6.70;100.00;96136.72;10447118;28;20554;-75
2022/11/19 19:19:48;;;;;;;20.70;11.10;;;;;;;-6.79;100.00;96133.75;10411601;28;20630;-76
2022/11/19 19:24:48;;;;;;;24.83;11.87;;;;;;;-6.88;100.00;96134.94;10411692;28;20192;-75
2022/11/19 19:29:49;;;;;;;19.30;11.03;;;;;;;-6.97;100.00;96141.22;10407742;28;20228;-76
2022/11/19 19:34:49;;;;;;;24.20;11.70;;;;;;;-6.88;100.00;96142.59;10404690;28;20204;-76
2022/11/19 19:39:50;;;;;;;23.77;12.70;;;;;;;-6.98;100.00;96149.78;10403745;28;20743;-76
2022/11/19 19:44:50;;;;;;;25.43;12.27;;;;;;;-6.96;100.00;96155.63;10369264;28;20617;-76
2022/11/19 19:49:50;;;;;;;26.13;13.07;;;;;;;-7.02;100.00;96155.88;10369306;28;20262;-76
2022/11/19 19:54:51;;;;;;;23.23;12.10;;;;;;;-7.03;100.00;96155.06;10369507;28;20193;-76
2022/11/19 19:59:51;;;;;;;26.07;12.87;;;;;;;-6.99;100.00;96160.84;10377095;28;20217;-76
2022/11/19 20:04:51;;;;;;;19.23;10.73;;;;;;;-6.97;100.00;96158.25;10391778;28;20196;-76
2022/11/19 20:09:52;;;;;;;20.77;11.53;;;;;;;-7.08;100.00;96161.22;10379323;28;20538;-76
2022/11/19 20:14:52;;;;;;;24.13;10.47;;;;;;;-7.05;100.00;96156.81;10381264;28;20194;-76
2022/11/19 20:19:53;;;;;;;22.00;10.57;;;;;;;-7.08;100.00;96164.59;10388127;28;20208;-76
2022/11/19 20:24:54;;;;;;;19.03;9.30;;;;;;;-6.97;100.00;96159.06;10383056;28;20190;-76
2022/11/19 20:29:55;;;;;;;19.10;10.30;;;;;;;-6.95;100.00;96153.91;10390282;28;20212;-76
2022/11/19 20:34:55;;;;;;;16.70;8.27;;;;;;;-6.95;100.00;96162.38;10425913;28;20612;-76
2022/11/19 20:39:55;;;;;;;20.97;10.20;;;;;;;-7.07;100.00;96158.63;10420743;28;20220;-76
2022/11/19 20:44:56;;;;;;;17.83;8.27;;;;;;;-7.08;100.00;96156.13;10427479;28;20195;-76
2022/11/19 20:49:56;;;;;;;16.47;8.73;;;;;;;-7.13;100.00;96158.88;10424048;28;20199;-76
2022/11/19 20:54:56;;;;;;;20.30;11.10;;;;;;;-7.18;100.00;96156.50;10409015;28;20200;-76
2022/11/19 20:59:57;;;;;;;21.23;10.07;;;;;;;-7.22;100.00;96154.97;10408919;28;20228;-76
2022/11/19 21:04:57;;;;;;;21.50;10.43;;;;;;;-7.19;100.00;96152.31;10408280;28;20196;-76
2022/11/19 21:09:58;;;;;;;21.37;9.60;;;;;;;-7.27;100.00;96143.31;10409078;28;20186;-76
2022/11/19 21:14:58;;;;;;;16.50;7.43;;;;;;;-7.28;100.00;96149.31;10408051;28;20192;-75
2022/11/19 21:19:58;;;;;;;18.87;8.97;;;;;;;-7.38;100.00;96143.75;10408390;28;20204;-76
2022/11/19 21:24:59;;;;;;;20.47;9.20;;;;;;;-7.45;100.00;96138.09;10408379;28;20197;-76
2022/11/19 21:29:59;;;;;;;18.90;9.97;;;;;;;-7.53;100.00;96130.75;10408555;28;20232;-75
2022/11/19 21:34:59;;;;;;;12.70;6.43;;;;;;;-7.50;100.00;96136.59;10408082;28;20192;-75
2022/11/19 21:40:00;;;;;;;16.13;9.23;;;;;;;-7.59;100.00;96133.53;10407652;28;20228;-75
2022/11/19 21:45:00;;;;;;;14.77;7.53;;;;;;;-7.62;100.00;96138.75;10407792;28;20193;-75
2022/11/19 21:50:01;;;;;;;16.20;7.47;;;;;;;-7.64;100.00;96138.00;10407608;28;20679;-75
2022/11/19 21:55:01;;;;;;;15.83;8.70;;;;;;;-7.68;100.00;96139.00;10407902;28;20294;-75
2022/11/19 22:00:02;;;;;;;16.13;7.57;;;;;;;-7.59;100.00;96131.00;10407654;28;20221;-75
2022/11/19 22:05:13;;;;;;;18.60;9.00;;;;;;;-7.61;100.00;96129.38;10409409;28;20573;-75
2022/11/19 22:10:14;;;;;;;15.80;7.47;;;;;;;-7.61;100.00;96121.75;10415175;28;20192;-75
2022/11/19 22:15:14;;;;;;;10.40;5.13;;;;;;;-7.66;100.00;96118.59;10414266;28;20294;-75
2022/11/19 22:20:14;;;;;;;12.00;6.43;;;;;;;-7.67;100.00;96120.31;10414561;28;20217;-75
2022/11/19 22:25:15;;;;;;;14.70;8.67;;;;;;;-7.82;100.00;96119.19;10414097;28;20195;-75
2022/11/19 22:30:15;;;;;;;7.67;5.33;;;;;;;-7.80;100.00;96116.59;10413450;28;20252;-76
2022/11/19 22:35:16;;;;;;;15.40;6.97;;;;;;;-7.92;100.00;96111.06;10414385;28;20276;-75
2022/11/19 22:40:16;;;;;;;11.10;6.23;;;;;;;-7.88;100.00;96111.78;10413253;28;20219;-75
2022/11/19 22:45:16;;;;;;;14.20;7.87;;;;;;;-7.91;100.00;96107.66;10413455;28;20206;-75
2022/11/19 22:50:17;;;;;;;19.70;6.20;;;;;;;-7.87;100.00;96098.22;10413694;28;20188;-75
2022/11/19 22:55:17;;;;;;;9.60;6.07;;;;;;;-7.90;100.00;96101.69;10413202;28;20671;-75
2022/11/19 23:00:37;;;;;;;13.00;6.67;;;;;;;-7.95;100.00;96097.66;10413223;28;20571;-76
2022/11/19 23:05:37;;;;;;;12.60;7.57;;;;;;;-8.02;100.00;96103.84;10413662;28;20656;-76
2022/11/19 23:10:38;;;;;;;13.47;7.20;;;;;;;-8.04;100.00;96098.00;10413775;28;20192;-76
2022/11/19 23:15:38;;;;;;;11.77;6.63;;;;;;;-8.04;100.00;96088.66;10411995;28;20196;-75
2022/11/19 23:20:39;;;;;;;14.77;7.43;;;;;;;-8.03;100.00;96095.41;10413120;28;20234;-76
2022/11/19 23:25:39;;;;;;;10.03;4.10;;;;;;;-8.01;100.00;96087.72;10413092;28;20675;-75
2022/11/19 23:30:39;;;;;;;16.10;8.27;;;;;;;-8.12;100.00;96086.41;10412661;28;20870;-75